createdAt,value
2023-03-21T00:00:41.375Z,15.25
2023-03-21T00:03:08.899Z,14.77
2023-03-21T00:05:42.831Z,15.10
2023-03-21T00:08:09.750Z,15.07
2023-03-21T00:10:42.305Z,15.43
2023-03-21T00:13:22.822Z,16.40
2023-03-21T00:16:05.780Z,15.68
2023-03-21T00:18:42.022Z,17.15
2023-03-21T00:23:58.918Z,16.42
2023-03-21T00:26:25.924Z,17.90
2023-03-21T00:28:52.835Z,18.50
2023-03-21T00:31:19.377Z,18.90
2023-03-21T00:33:45.926Z,18.45
2023-03-21T00:36:13.175Z,18.85
2023-03-21T00:38:40.344Z,19.92
2023-03-21T00:41:19.264Z,19.95
2023-03-21T00:43:50.149Z,19.45
2023-03-21T00:46:16.772Z,19.30
2023-03-21T00:48:43.313Z,18.55
2023-03-21T00:51:26.606Z,17.70
2023-03-21T00:53:58.313Z,16.85
2023-03-21T00:56:25.007Z,17.17
2023-03-21T00:58:51.546Z,16.00
2023-03-21T01:01:18.648Z,16.35
2023-03-21T01:03:48.187Z,14.00
2023-03-21T01:06:19.440Z,15.30
2023-03-21T01:08:54.828Z,15.25
2023-03-21T01:11:28.398Z,13.77
2023-03-21T01:14:07.109Z,14.75
2023-03-21T01:16:34.738Z,13.82
2023-03-21T01:19:04.926Z,13.75
2023-03-21T01:21:32.107Z,12.30
2023-03-21T01:23:59.198Z,13.60
2023-03-21T01:26:25.807Z,11.13
2023-03-21T01:28:52.331Z,9.90
2023-03-21T01:31:19.354Z,9.98
2023-03-21T01:33:45.907Z,10.20
2023-03-21T01:36:20.392Z,9.20
2023-03-21T01:38:48.803Z,10.30
2023-03-21T01:41:43.520Z,10.38
2023-03-21T01:44:16.913Z,9.93
2023-03-21T01:46:57.437Z,10.20
2023-03-21T01:49:36.163Z,10.48
2023-03-21T01:52:15.280Z,10.45
2023-03-21T01:54:47.616Z,11.25
2023-03-21T01:57:18.181Z,11.32
2023-03-21T01:59:50.451Z,11.90
2023-03-21T02:02:20.894Z,11.45
2023-03-21T02:04:51.086Z,11.63
2023-03-21T02:07:19.497Z,11.32
2023-03-21T02:09:49.012Z,10.90
2023-03-21T02:12:16.373Z,10.25
2023-03-21T02:14:43.271Z,9.95
2023-03-21T02:17:29.985Z,11.85
2023-03-21T02:20:12.003Z,11.35
2023-03-21T02:23:02.845Z,11.48
2023-03-21T02:25:56.009Z,10.55
2023-03-21T02:28:35.280Z,10.18
2023-03-21T02:31:39.370Z,11.00
2023-03-21T02:34:35.867Z,11.20
2023-03-21T02:37:11.302Z,10.70
2023-03-21T02:40:13.582Z,10.23
2023-03-21T02:42:44.979Z,10.95
2023-03-21T02:45:25.811Z,10.63
2023-03-21T02:48:33.164Z,10.73
2023-03-21T02:51:05.993Z,10.75
2023-03-21T02:53:35.181Z,10.95
2023-03-21T02:56:02.207Z,10.65
2023-03-21T02:58:29.208Z,10.88
2023-03-21T03:00:56.239Z,10.68
2023-03-21T03:03:33.527Z,11.30
2023-03-21T03:06:03.496Z,11.43
2023-03-21T03:09:02.299Z,12.50
2023-03-21T03:11:31.977Z,12.93
2023-03-21T03:14:44.148Z,14.40
2023-03-21T03:17:47.122Z,11.60
2023-03-21T03:20:47.232Z,12.18
2023-03-21T03:23:22.558Z,11.57
2023-03-21T03:25:53.206Z,10.48
2023-03-21T03:28:26.599Z,10.70
2023-03-21T03:31:08.119Z,10.98
2023-03-21T03:33:38.105Z,10.35
2023-03-21T03:36:07.063Z,9.73
2023-03-21T03:38:35.351Z,10.13
2023-03-21T03:41:09.075Z,9.95
2023-03-21T03:43:41.873Z,9.48
2023-03-21T03:46:26.664Z,9.07
2023-03-21T03:48:58.601Z,8.82
2023-03-21T03:51:51.079Z,9.32
2023-03-21T03:54:29.880Z,10.18
2023-03-21T03:56:56.921Z,10.68
2023-03-21T03:59:24.439Z,10.27
2023-03-21T04:01:51.542Z,10.68
2023-03-21T04:04:18.226Z,9.75
2023-03-21T04:06:51.521Z,9.20
2023-03-21T04:09:22.217Z,9.00
2023-03-21T04:11:51.611Z,9.50
2023-03-21T04:14:18.226Z,9.88
2023-03-21T04:16:44.777Z,10.15
2023-03-21T04:19:11.308Z,8.85
2023-03-21T04:21:38.042Z,9.02
2023-03-21T04:24:05.590Z,8.93
2023-03-21T04:26:33.723Z,10.88
2023-03-21T04:29:00.856Z,9.43
2023-03-21T04:31:28.603Z,9.15
2023-03-21T04:33:55.941Z,9.38
2023-03-21T04:36:27.759Z,9.75
2023-03-21T04:38:57.183Z,9.18
2023-03-21T04:41:23.916Z,9.38
2023-03-21T04:43:52.320Z,9.45
2023-03-21T04:46:19.068Z,8.98
2023-03-21T04:48:45.567Z,10.05
2023-03-21T04:51:12.217Z,8.80
2023-03-21T04:53:39.491Z,8.95
2023-03-21T04:56:06.747Z,8.88
2023-03-21T04:58:33.393Z,10.85
2023-03-21T05:01:02.501Z,9.50
2023-03-21T05:03:34.629Z,9.27
2023-03-21T05:06:01.563Z,9.40
2023-03-21T05:08:28.115Z,10.60
2023-03-21T05:10:54.626Z,10.70
2023-03-21T05:13:21.121Z,11.05
2023-03-21T05:15:47.634Z,10.35
2023-03-21T05:18:14.145Z,9.98
2023-03-21T05:20:44.485Z,10.07
2023-03-21T05:23:11.828Z,9.73
2023-03-21T05:25:40.104Z,9.07
2023-03-21T05:30:33.918Z,9.35
2023-03-21T05:33:00.846Z,9.00
2023-03-21T05:35:27.443Z,9.32
2023-03-21T05:37:54.086Z,8.80
2023-03-21T05:40:21.403Z,7.72
2023-03-21T05:42:48.354Z,8.98
2023-03-21T05:45:16.020Z,8.13
2023-03-21T05:47:42.617Z,8.70
2023-03-21T05:50:11.195Z,8.27
2023-03-21T05:52:37.733Z,8.70
2023-03-21T05:55:05.301Z,8.02
2023-03-21T05:57:35.023Z,8.25
2023-03-21T06:00:02.037Z,8.73
2023-03-21T06:02:28.618Z,8.13
2023-03-21T06:04:55.253Z,7.90
2023-03-21T06:07:22.198Z,9.05
2023-03-21T06:09:48.720Z,8.20
2023-03-21T06:12:15.681Z,8.93
2023-03-21T06:14:42.332Z,8.73
2023-03-21T06:17:08.926Z,9.00
2023-03-21T06:19:35.961Z,7.68
2023-03-21T06:22:02.544Z,8.05
2023-03-21T06:24:29.034Z,8.55
2023-03-21T06:26:56.110Z,10.05
2023-03-21T06:29:22.704Z,9.32
2023-03-21T06:31:49.301Z,9.65
2023-03-21T06:34:15.827Z,9.73
2023-03-21T06:36:44.710Z,8.95
2023-03-21T06:39:11.329Z,8.85
2023-03-21T06:41:38.041Z,9.73
2023-03-21T06:44:04.954Z,10.15
2023-03-21T06:46:31.554Z,9.90
2023-03-21T06:48:58.156Z,9.50
2023-03-21T06:51:24.811Z,9.57
2023-03-21T06:53:51.487Z,10.27
2023-03-21T06:56:18.044Z,8.77
2023-03-21T06:58:44.617Z,9.50
2023-03-21T07:01:11.244Z,9.82
2023-03-21T07:03:41.053Z,9.38
2023-03-21T07:06:11.908Z,8.95
2023-03-21T07:08:39.481Z,9.38
2023-03-21T07:11:06.483Z,10.02
2023-03-21T07:13:33.473Z,10.00
2023-03-21T07:16:00.650Z,9.05
2023-03-21T07:18:27.891Z,10.43
2023-03-21T07:20:54.430Z,7.72
2023-03-21T07:23:23.088Z,8.20
2023-03-21T07:25:50.668Z,9.00
2023-03-21T07:28:17.940Z,8.35
2023-03-21T07:30:45.297Z,7.60
2023-03-21T07:33:12.345Z,8.35
2023-03-21T07:35:39.421Z,8.90
2023-03-21T07:38:06.422Z,7.88
2023-03-21T07:40:33.618Z,7.53
2023-03-21T07:43:00.260Z,7.32
2023-03-21T07:45:27.366Z,6.43
2023-03-21T07:47:54.374Z,6.93
2023-03-21T07:50:21.418Z,5.95
2023-03-21T07:52:48.504Z,6.38
2023-03-21T07:55:17.276Z,5.35
2023-03-21T07:57:44.360Z,5.28
2023-03-21T08:00:12.675Z,5.72
2023-03-21T08:02:39.426Z,5.65
2023-03-21T08:05:06.157Z,4.88
2023-03-21T08:07:32.876Z,5.95
2023-03-21T08:09:59.885Z,4.68
2023-03-21T08:12:26.435Z,4.93
2023-03-21T08:14:53.039Z,5.18
2023-03-21T08:17:19.622Z,5.95
2023-03-21T08:19:46.432Z,5.18
2023-03-21T08:22:12.946Z,6.20
2023-03-21T08:24:39.506Z,6.45
2023-03-21T08:27:05.997Z,6.40
2023-03-21T08:29:32.496Z,6.60
2023-03-21T08:31:59.048Z,5.65
2023-03-21T08:34:26.689Z,6.38
2023-03-21T08:36:53.255Z,5.40
2023-03-21T08:39:21.828Z,6.78
2023-03-21T08:41:48.503Z,6.97
2023-03-21T08:44:16.910Z,6.35
2023-03-21T08:49:10.010Z,6.30
2023-03-21T08:51:38.244Z,6.47
2023-03-21T08:54:04.763Z,7.00
2023-03-21T08:56:31.549Z,6.85
2023-03-21T08:58:58.975Z,7.50
2023-03-21T09:01:26.217Z,7.55
2023-03-21T09:03:52.868Z,7.47
2023-03-21T09:06:19.410Z,7.20
2023-03-21T09:08:46.439Z,8.30
2023-03-21T09:11:13.151Z,8.15
2023-03-21T09:13:39.757Z,8.30
2023-03-21T09:16:06.650Z,8.90
2023-03-21T09:18:47.083Z,8.57
2023-03-21T09:21:15.591Z,7.57
2023-03-21T09:26:09.777Z,8.80
2023-03-21T09:28:38.978Z,8.10
2023-03-21T09:31:06.598Z,8.13
2023-03-21T09:33:35.248Z,8.88
2023-03-21T09:36:02.215Z,8.40
2023-03-21T09:38:30.549Z,7.75
2023-03-21T09:43:42.571Z,8.13
2023-03-21T09:46:15.508Z,8.30
2023-03-21T09:48:57.288Z,8.45
2023-03-21T09:51:27.152Z,8.18
2023-03-21T09:53:57.207Z,7.85
2023-03-21T09:56:26.030Z,8.02
2023-03-21T09:58:54.924Z,9.32
2023-03-21T10:01:41.683Z,8.35
2023-03-21T10:04:11.891Z,8.65
2023-03-21T10:06:41.362Z,8.15
2023-03-21T10:09:15.504Z,8.68
2023-03-21T10:11:49.669Z,8.55
2023-03-21T10:14:21.635Z,8.65
2023-03-21T10:16:50.411Z,8.77
2023-03-21T10:19:19.588Z,8.10
2023-03-21T10:22:00.325Z,9.75
2023-03-21T10:24:29.185Z,9.32
2023-03-21T10:26:56.052Z,8.45
2023-03-21T10:29:27.912Z,9.98
2023-03-21T10:31:55.043Z,9.45
2023-03-21T10:34:35.284Z,8.75
2023-03-21T10:37:03.527Z,8.90
2023-03-21T10:42:19.270Z,8.73
2023-03-21T10:44:49.213Z,9.38
2023-03-21T10:47:23.442Z,10.50
2023-03-21T10:50:06.954Z,9.05
2023-03-21T10:52:35.683Z,9.07
2023-03-21T10:55:08.517Z,9.23
2023-03-21T10:57:38.033Z,9.52
2023-03-21T11:00:17.112Z,9.00
2023-03-21T11:02:48.504Z,9.68
2023-03-21T11:05:46.814Z,8.68
2023-03-21T11:08:15.953Z,8.98
2023-03-21T11:10:51.617Z,8.18
2023-03-21T11:13:24.898Z,7.88
2023-03-21T11:15:58.986Z,8.35
2023-03-21T11:18:27.735Z,8.20
2023-03-21T11:20:56.838Z,7.43
2023-03-21T11:23:29.108Z,7.43
2023-03-21T11:25:58.320Z,8.00
2023-03-21T11:28:28.621Z,7.65
2023-03-21T11:30:57.992Z,7.70
2023-03-21T11:33:33.214Z,7.55
2023-03-21T11:36:02.547Z,6.95
2023-03-21T11:38:37.763Z,7.93
2023-03-21T11:41:05.034Z,7.20
2023-03-21T11:43:38.416Z,7.70
2023-03-21T11:46:06.518Z,7.53
2023-03-21T11:48:45.073Z,7.63
2023-03-21T11:51:30.505Z,6.38
2023-03-21T11:54:16.933Z,5.38
2023-03-21T11:56:52.096Z,5.25
2023-03-21T11:59:59.424Z,6.05
2023-03-21T12:02:31.900Z,6.13
2023-03-21T12:05:01.239Z,6.70
2023-03-21T12:07:49.504Z,6.65
2023-03-21T12:10:43.682Z,6.55
2023-03-21T12:13:26.717Z,5.30
2023-03-21T12:16:02.100Z,5.90
2023-03-21T12:18:56.978Z,5.50
2023-03-21T12:21:30.157Z,5.95
2023-03-21T12:23:56.638Z,5.57
2023-03-21T12:26:31.533Z,5.35
2023-03-21T12:29:10.272Z,6.07
2023-03-21T12:31:42.541Z,6.30
2023-03-21T12:34:19.885Z,6.43
2023-03-21T12:37:07.068Z,5.57
2023-03-21T12:39:39.331Z,6.10
2023-03-21T12:42:24.119Z,6.28
2023-03-21T12:44:55.963Z,5.55
2023-03-21T12:47:27.319Z,6.50
2023-03-21T12:50:01.671Z,6.38
2023-03-21T12:52:40.542Z,6.60
2023-03-21T12:55:13.965Z,6.15
2023-03-21T12:58:18.392Z,6.50
2023-03-21T13:01:11.461Z,5.78
2023-03-21T13:03:45.585Z,6.10
2023-03-21T13:06:18.328Z,5.72
2023-03-21T13:08:50.270Z,5.90
2023-03-21T13:11:20.566Z,6.40
2023-03-21T13:13:53.078Z,6.03
2023-03-21T13:16:45.079Z,6.05
2023-03-21T13:19:20.756Z,5.72
2023-03-21T13:22:05.971Z,6.18
2023-03-21T13:24:32.448Z,6.30
2023-03-21T13:27:07.055Z,5.90
2023-03-21T13:30:07.432Z,6.97
2023-03-21T13:35:28.908Z,5.80
2023-03-21T13:38:03.694Z,6.57
2023-03-21T13:40:43.948Z,5.35
2023-03-21T13:43:35.507Z,5.45
2023-03-21T13:46:10.936Z,5.82
2023-03-21T13:48:58.463Z,5.53
2023-03-21T13:51:28.578Z,5.50
2023-03-21T13:54:17.676Z,5.05
2023-03-21T13:56:47.169Z,4.93
2023-03-21T13:59:17.401Z,5.20
2023-03-21T14:02:19.472Z,4.68
2023-03-21T14:05:04.243Z,5.53
2023-03-21T14:07:34.998Z,5.10
2023-03-21T14:10:09.316Z,5.47
2023-03-21T14:12:41.223Z,5.90
2023-03-21T14:15:40.950Z,6.32
2023-03-21T14:18:28.122Z,6.15
2023-03-21T14:21:09.201Z,4.90
2023-03-21T14:23:38.618Z,4.60
2023-03-21T14:26:06.336Z,4.47
2023-03-21T14:28:33.617Z,4.43
2023-03-21T14:31:01.317Z,4.35
2023-03-21T14:33:41.625Z,4.85
2023-03-21T14:36:15.511Z,5.15
2023-03-21T14:38:42.384Z,5.00
2023-03-21T14:41:26.624Z,4.95
2023-03-21T14:44:17.293Z,5.05
2023-03-21T14:46:45.086Z,4.82
2023-03-21T14:49:24.554Z,4.50
2023-03-21T14:51:53.241Z,4.68
2023-03-21T14:54:19.856Z,4.70
2023-03-21T14:57:02.780Z,4.10
2023-03-21T14:59:36.265Z,4.60
2023-03-21T15:02:31.096Z,4.93
2023-03-21T15:04:59.178Z,5.15
2023-03-21T15:07:34.448Z,5.05
2023-03-21T15:10:05.400Z,4.70
2023-03-21T15:12:32.959Z,4.75
2023-03-21T15:15:01.368Z,3.55
2023-03-21T15:17:28.417Z,3.72
2023-03-21T15:19:54.975Z,3.53
2023-03-21T15:22:33.679Z,2.75
2023-03-21T15:25:04.845Z,2.90
2023-03-21T15:27:34.400Z,3.40
2023-03-21T15:30:01.109Z,3.38
2023-03-21T15:32:28.805Z,3.75
2023-03-21T15:35:03.478Z,4.30
2023-03-21T15:40:09.729Z,4.05
2023-03-21T15:42:40.940Z,4.30
2023-03-21T15:45:23.394Z,3.83
2023-03-21T15:47:50.084Z,3.72
2023-03-21T15:50:22.617Z,4.32
2023-03-21T15:52:50.345Z,4.00
2023-03-21T15:55:39.145Z,3.83
2023-03-21T15:58:16.286Z,4.15
2023-03-21T16:00:49.883Z,4.68
2023-03-21T16:03:23.254Z,5.70
2023-03-21T16:06:11.422Z,5.05
2023-03-21T16:08:52.408Z,4.55
2023-03-21T16:11:31.845Z,3.67
2023-03-21T16:13:58.408Z,4.10
2023-03-21T16:16:27.715Z,3.25
2023-03-21T16:18:55.502Z,3.00
2023-03-21T16:21:24.600Z,3.53
2023-03-21T16:23:51.267Z,3.33
2023-03-21T16:26:21.661Z,3.22
2023-03-21T16:28:48.855Z,3.63
2023-03-21T16:31:26.333Z,3.80
2023-03-21T16:33:53.125Z,3.78
2023-03-21T16:36:23.379Z,4.15
2023-03-21T16:38:52.670Z,3.90
2023-03-21T16:41:19.924Z,3.03
2023-03-21T16:43:46.916Z,3.13
2023-03-21T16:46:16.552Z,3.65
2023-03-21T16:48:44.626Z,3.00
2023-03-21T16:51:18.950Z,2.13
2023-03-21T16:53:46.020Z,2.40
2023-03-21T16:56:21.904Z,2.70
2023-03-21T16:58:48.749Z,2.38
2023-03-21T17:01:20.666Z,1.70
2023-03-21T17:03:48.560Z,2.05
2023-03-21T17:06:17.566Z,1.67
2023-03-21T17:08:44.498Z,1.85
2023-03-21T17:11:13.015Z,1.65
2023-03-21T17:13:39.670Z,1.52
2023-03-21T17:16:27.035Z,2.00
2023-03-21T17:18:54.563Z,1.70
2023-03-21T17:21:26.557Z,1.83
2023-03-21T17:23:53.635Z,2.20
2023-03-21T17:26:26.440Z,1.83
2023-03-21T17:28:55.390Z,1.55
2023-03-21T17:31:24.095Z,1.80
2023-03-21T17:33:50.935Z,1.98
2023-03-21T17:36:24.276Z,1.58
2023-03-21T17:38:52.861Z,1.63
2023-03-21T17:41:20.277Z,1.98
2023-03-21T17:43:47.319Z,2.08
2023-03-21T17:46:18.921Z,1.90
2023-03-21T17:48:46.251Z,1.83
2023-03-21T17:51:16.520Z,2.40
2023-03-21T17:53:50.789Z,2.30
2023-03-21T17:56:26.169Z,1.95
2023-03-21T17:58:53.929Z,1.70
2023-03-21T18:01:20.898Z,2.72
2023-03-21T18:03:47.522Z,2.10
2023-03-21T18:06:16.466Z,2.65
2023-03-21T18:08:44.805Z,1.85
2023-03-21T18:13:40.352Z,2.80
2023-03-21T18:16:08.467Z,2.15
2023-03-21T18:18:35.188Z,3.13
2023-03-21T18:21:02.100Z,3.00
2023-03-21T18:23:28.956Z,2.72
2023-03-21T18:25:55.578Z,2.42
2023-03-21T18:28:22.597Z,2.67
2023-03-21T18:31:07.704Z,3.42
2023-03-21T18:33:37.379Z,2.35
2023-03-21T18:38:35.514Z,2.35
2023-03-21T18:41:02.189Z,2.13
2023-03-21T18:46:16.399Z,2.47
2023-03-21T18:48:43.073Z,2.90
2023-03-21T18:51:10.182Z,2.65
2023-03-21T18:53:36.688Z,2.13
2023-03-21T18:56:03.312Z,2.80
2023-03-21T18:58:29.875Z,2.60
2023-03-21T19:00:59.459Z,2.83
2023-03-21T19:03:35.722Z,2.33
2023-03-21T19:06:04.833Z,2.30
2023-03-21T19:08:32.196Z,2.42
2023-03-21T19:11:03.333Z,2.70
2023-03-21T19:13:33.044Z,2.58
2023-03-21T19:16:02.414Z,1.90
2023-03-21T19:18:50.208Z,2.40
2023-03-21T19:21:19.868Z,2.22
2023-03-21T19:26:33.328Z,3.80
2023-03-21T19:28:59.916Z,4.15
2023-03-21T19:31:27.243Z,2.88
2023-03-21T19:33:53.888Z,3.30
2023-03-21T19:36:22.772Z,2.33
2023-03-21T19:38:50.543Z,3.00
2023-03-21T19:41:17.992Z,3.75
2023-03-21T19:43:54.063Z,3.10
2023-03-21T19:46:24.649Z,3.85
2023-03-21T19:48:51.605Z,3.65
2023-03-21T19:51:28.178Z,3.83
2023-03-21T19:53:56.130Z,4.50
2023-03-21T19:56:26.532Z,3.83
2023-03-21T19:58:53.895Z,4.53
2023-03-21T20:01:20.669Z,4.82
2023-03-21T20:03:47.436Z,4.07
2023-03-21T20:06:14.134Z,4.03
2023-03-21T20:09:13.564Z,3.53
2023-03-21T20:11:27.887Z,3.13
2023-03-21T20:13:54.481Z,3.00
2023-03-21T20:16:21.412Z,3.40
2023-03-21T20:18:47.981Z,2.17
2023-03-21T20:21:18.021Z,2.25
2023-03-21T20:23:49.296Z,2.30
2023-03-21T20:26:16.874Z,2.55
2023-03-21T20:28:56.021Z,2.17
2023-03-21T20:31:30.623Z,2.42
2023-03-21T20:33:57.320Z,2.05
2023-03-21T20:36:38.821Z,2.45
2023-03-21T20:39:06.862Z,2.20
2023-03-21T20:41:33.459Z,2.63
2023-03-21T20:46:49.415Z,2.78
2023-03-21T20:49:16.231Z,2.05
2023-03-21T20:54:30.129Z,2.08
2023-03-21T20:56:57.274Z,2.25
2023-03-21T20:59:27.678Z,2.90
2023-03-21T21:01:57.161Z,2.72
2023-03-21T21:04:44.276Z,2.35
2023-03-21T21:07:15.882Z,2.30
2023-03-21T21:09:43.991Z,2.30
2023-03-21T21:12:11.038Z,2.13
2023-03-21T21:14:38.232Z,2.67
2023-03-21T21:17:23.924Z,2.40
2023-03-21T21:19:52.281Z,2.28
2023-03-21T21:22:19.200Z,2.72
2023-03-21T21:24:45.749Z,2.60
2023-03-21T21:27:12.326Z,2.53
2023-03-21T21:29:38.877Z,3.03
2023-03-21T21:32:05.491Z,2.85
2023-03-21T21:34:32.277Z,2.42
2023-03-21T21:36:59.212Z,2.70
2023-03-21T21:39:26.577Z,2.40
2023-03-21T21:41:53.690Z,2.35
2023-03-21T21:44:20.335Z,3.58
2023-03-21T21:46:47.118Z,2.33
2023-03-21T21:49:13.928Z,3.33
2023-03-21T21:51:41.888Z,3.25
2023-03-21T21:54:08.458Z,2.80
2023-03-21T21:56:37.524Z,2.72
2023-03-21T21:59:05.440Z,2.88
2023-03-21T22:01:34.715Z,2.95
2023-03-21T22:04:06.416Z,2.88
2023-03-21T22:06:33.920Z,2.60
2023-03-21T22:09:01.024Z,2.08
2023-03-21T22:11:27.774Z,2.80
2023-03-21T22:13:54.279Z,3.17
2023-03-21T22:16:21.071Z,2.40
2023-03-21T22:18:47.683Z,3.58
2023-03-21T22:21:14.240Z,3.05
2023-03-21T22:23:43.401Z,2.75
2023-03-21T22:26:10.605Z,3.03
2023-03-21T22:28:40.092Z,2.38
2023-03-21T22:31:12.899Z,3.33
2023-03-21T22:33:39.579Z,3.30
2023-03-21T22:36:06.459Z,3.28
2023-03-21T22:38:34.639Z,3.58
2023-03-21T22:41:02.337Z,2.53
2023-03-21T22:43:29.190Z,2.58
2023-03-21T22:45:56.005Z,3.15
2023-03-21T22:48:23.089Z,3.25
2023-03-21T22:50:49.709Z,2.78
2023-03-21T22:53:16.301Z,3.10
2023-03-21T22:55:42.882Z,2.72
2023-03-21T22:58:09.442Z,3.30
2023-03-21T23:00:35.937Z,2.50
2023-03-21T23:03:02.450Z,2.50
2023-03-21T23:05:29.119Z,2.22
2023-03-21T23:07:55.645Z,2.15
2023-03-21T23:10:22.277Z,3.22
2023-03-21T23:12:49.297Z,2.58
2023-03-21T23:15:15.876Z,2.53
2023-03-21T23:17:44.199Z,3.22
2023-03-21T23:22:37.917Z,2.55
2023-03-21T23:25:05.299Z,2.42
2023-03-21T23:27:31.862Z,3.03
2023-03-21T23:29:58.680Z,2.35
2023-03-21T23:32:25.314Z,2.67
2023-03-21T23:34:51.908Z,2.22
2023-03-21T23:37:18.515Z,2.33
2023-03-21T23:39:45.358Z,3.00
2023-03-21T23:42:11.919Z,2.45
2023-03-21T23:44:38.522Z,3.17
2023-03-21T23:47:06.416Z,3.15
2023-03-21T23:49:37.548Z,2.63
2023-03-21T23:52:04.161Z,3.28
2023-03-21T23:54:30.930Z,2.72
2023-03-21T23:56:57.412Z,2.83
2023-03-21T23:59:23.976Z,3.45
